« Back
NWS Peachtree City, Ga » Text Product » MCN Terminal Aerodrome Forecast


Printer-friendly Version
Current Version              Previous Versions:   1  2  3  4  5  6  7  8  9  

Terminal Aerodrome Forecast

442
FTUS42 KFFC 250543
TAFMCN
TAF
KMCN 250543Z 2506/2606 00000KT P6SM SKC
     FM251500 22003KT P6SM SCT035
     FM251800 24006KT P6SM VCSH SCT050 PROB30 2519/2523 6SM -TSRA
      BKN040CB
     FM260200 23003KT P6SM SCT100=



USA.gov is the U.S. government's official web portal to all federal, state and local government web resources and services.